Flowery Branch, Georgia
Current Conditions -  °F | °C
As of 6:53 PM on Wednesday 28 Jan 2015 (Local Time) from KGVL Reporting Station
Clear Clear  
Wind Chill: 46°   Ceiling: Unl
Heat Index: 46°   Visibility: 10mi
Dew Point: 17°   Wind: 3mph
Humidity: 31%   Direction: 190°S
Pressure: 30.24"   Gusts: NA
Location:  34.19°N, 83.93°W
Report Text: KGVL 282353Z AUTO 19003KT 10SM CLR 08/M08 A3024 RMK AO2 SLP244 T00781083 10122 20078 53006
Loading
Personal Weather Stations






























Interactive Weather Map New forecast layout! Learn more

10-Day Weather Forecast

Advertisements
Track Severe Weather on mobile